createdAt,value
2023-04-16T00:01:01.145Z,100984.78
2023-04-16T00:03:27.692Z,100984.28
2023-04-16T00:05:54.191Z,100978.09
2023-04-16T00:08:20.566Z,100989.00
2023-04-16T00:10:46.926Z,100980.97
2023-04-16T00:13:13.284Z,100980.97
2023-04-16T00:15:41.003Z,100982.72
2023-04-16T00:18:07.387Z,100981.59
2023-04-16T00:20:33.735Z,100979.34
2023-04-16T00:23:00.122Z,100985.66
2023-04-16T00:25:26.481Z,100972.72
2023-04-16T00:27:52.850Z,100977.53
2023-04-16T00:30:19.447Z,100983.31
2023-04-16T00:32:47.130Z,100976.03
2023-04-16T00:35:13.541Z,100981.03
2023-04-16T00:37:39.915Z,100980.19
2023-04-16T00:40:07.533Z,100983.91
2023-04-16T00:42:33.891Z,100984.38
2023-04-16T00:45:00.609Z,100985.28
2023-04-16T00:47:27.017Z,100989.28
2023-04-16T00:49:54.801Z,100986.72
2023-04-16T00:52:21.235Z,100986.66
2023-04-16T00:54:47.970Z,100988.94
2023-04-16T00:57:14.726Z,100983.78
2023-04-16T00:59:41.844Z,100992.75
2023-04-16T01:02:08.385Z,101002.00
2023-04-16T01:04:35.314Z,101003.28
2023-04-16T01:07:03.211Z,101003.19
2023-04-16T01:09:29.536Z,101000.63
2023-04-16T01:11:55.961Z,101004.28
2023-04-16T01:14:22.333Z,101010.28
2023-04-16T01:16:48.717Z,101008.59
2023-04-16T01:19:15.067Z,101010.16
2023-04-16T01:21:42.777Z,101010.09
2023-04-16T01:24:09.116Z,101015.66
2023-04-16T01:26:35.472Z,101022.88
2023-04-16T01:29:02.700Z,101022.94
2023-04-16T01:31:29.108Z,101023.78
2023-04-16T01:33:55.485Z,101023.31
2023-04-16T01:36:21.860Z,101027.44
2023-04-16T01:38:49.949Z,101023.09
2023-04-16T01:41:16.319Z,101039.56
2023-04-16T01:43:42.724Z,101031.19
2023-04-16T01:46:13.456Z,101033.34
2023-04-16T01:48:39.884Z,101033.91
2023-04-16T01:51:06.308Z,101038.66
2023-04-16T01:53:32.668Z,101036.97
2023-04-16T01:56:00.345Z,101035.25
2023-04-16T01:58:28.487Z,101041.50
2023-04-16T02:00:55.020Z,101041.78
2023-04-16T02:03:21.806Z,101045.47
2023-04-16T02:05:48.268Z,101045.78
2023-04-16T02:08:14.654Z,101049.09
2023-04-16T02:10:41.005Z,101046.38
2023-04-16T02:13:08.733Z,101054.03
2023-04-16T02:15:35.068Z,101049.66
2023-04-16T02:18:01.535Z,101050.16
2023-04-16T02:20:27.993Z,101050.31
2023-04-16T02:22:54.412Z,101049.09
2023-04-16T02:25:20.788Z,101053.72
2023-04-16T02:27:47.139Z,101050.47
2023-04-16T02:30:14.823Z,101064.97
2023-04-16T02:32:41.226Z,101059.22
2023-04-16T02:35:07.854Z,101054.97
2023-04-16T02:37:34.210Z,101062.25
2023-04-16T02:40:00.574Z,101060.44
2023-04-16T02:42:26.947Z,101067.22
2023-04-16T02:44:53.291Z,101063.78
2023-04-16T02:47:21.002Z,101063.69
2023-04-16T02:49:47.391Z,101073.16
2023-04-16T02:52:15.519Z,101076.47
2023-04-16T02:54:42.037Z,101073.56
2023-04-16T02:57:08.430Z,101080.13
2023-04-16T02:59:34.756Z,101074.28
2023-04-16T03:02:01.138Z,101084.56
2023-04-16T03:04:28.916Z,101081.44
2023-04-16T03:06:55.295Z,101088.91
2023-04-16T03:09:21.642Z,101091.81
2023-04-16T03:11:48.025Z,101091.72
2023-04-16T03:14:14.376Z,101094.75
2023-04-16T03:16:40.733Z,101094.53
2023-04-16T03:19:07.319Z,101095.13
2023-04-16T03:21:35.179Z,101090.91
2023-04-16T03:24:01.538Z,101089.41
2023-04-16T03:26:27.946Z,101091.59
2023-04-16T03:28:54.303Z,101097.97
2023-04-16T03:31:20.733Z,101100.13
2023-04-16T03:33:47.117Z,101100.19
2023-04-16T03:36:13.502Z,101106.66
2023-04-16T03:38:41.239Z,101099.84
2023-04-16T03:41:07.613Z,101101.28
2023-04-16T03:43:33.978Z,101092.72
2023-04-16T03:46:00.429Z,101095.50
2023-04-16T03:48:27.031Z,101097.84
2023-04-16T03:50:53.404Z,101097.81
2023-04-16T03:53:19.749Z,101101.88
2023-04-16T03:55:49.722Z,101094.13
2023-04-16T03:58:16.056Z,101104.16
2023-04-16T04:00:42.492Z,101102.56
2023-04-16T04:03:09.047Z,101094.19
2023-04-16T04:05:36.736Z,101100.34
2023-04-16T04:08:03.180Z,101098.09
2023-04-16T04:10:32.001Z,101103.44
2023-04-16T04:12:59.851Z,101104.81
2023-04-16T04:15:26.660Z,101112.75
2023-04-16T04:17:53.074Z,101100.19
2023-04-16T04:20:20.334Z,101117.38
2023-04-16T04:22:46.730Z,101112.25
2023-04-16T04:25:13.442Z,101113.31
2023-04-16T04:27:39.818Z,101112.47
2023-04-16T04:30:08.814Z,101122.91
2023-04-16T04:32:35.391Z,101121.63
2023-04-16T04:35:02.601Z,101122.38
2023-04-16T04:37:29.157Z,101121.19
2023-04-16T04:39:55.669Z,101125.16
2023-04-16T04:42:22.157Z,101123.91
2023-04-16T04:44:48.541Z,101125.59
2023-04-16T04:47:16.306Z,101130.13
2023-04-16T04:49:42.711Z,101126.84
2023-04-16T04:52:09.153Z,101136.72
2023-04-16T04:54:35.704Z,101146.34
2023-04-16T04:57:02.075Z,101145.00
2023-04-16T04:59:28.505Z,101143.28
2023-04-16T05:01:54.921Z,101144.84
2023-04-16T05:04:22.624Z,101147.75
2023-04-16T05:06:48.981Z,101147.84
2023-04-16T05:09:15.389Z,101144.28
2023-04-16T05:11:42.034Z,101156.31
2023-04-16T05:14:08.619Z,101154.03
2023-04-16T05:16:36.761Z,101168.44
2023-04-16T05:19:03.623Z,101163.06
2023-04-16T05:21:31.414Z,101162.22
2023-04-16T05:23:58.662Z,101169.34
2023-04-16T05:26:25.034Z,101161.59
2023-04-16T05:28:51.409Z,101163.88
2023-04-16T05:31:18.014Z,101171.22
2023-04-16T05:33:44.400Z,101174.19
2023-04-16T05:36:10.836Z,101176.34
2023-04-16T05:38:38.550Z,101174.81
2023-04-16T05:41:05.218Z,101174.22
2023-04-16T05:43:31.614Z,101182.81
2023-04-16T05:45:58.080Z,101181.06
2023-04-16T05:48:24.561Z,101182.59
2023-04-16T05:50:50.929Z,101191.31
2023-04-16T05:53:17.294Z,101186.09
2023-04-16T05:55:44.962Z,101192.00
2023-04-16T05:58:11.312Z,101194.25
2023-04-16T06:00:37.975Z,101195.28
2023-04-16T06:03:04.668Z,101201.06
2023-04-16T06:05:31.180Z,101204.97
2023-04-16T06:07:57.623Z,101212.63
2023-04-16T06:10:24.098Z,101207.81
2023-04-16T06:12:51.785Z,101205.34
2023-04-16T06:15:19.482Z,101212.28
2023-04-16T06:17:45.863Z,101212.00
2023-04-16T06:20:12.956Z,101216.69
2023-04-16T06:22:39.422Z,101227.63
2023-04-16T06:25:06.817Z,101231.09
2023-04-16T06:27:33.187Z,101227.72
2023-04-16T06:30:00.954Z,101226.59
2023-04-16T06:32:27.626Z,101233.13
2023-04-16T06:34:54.126Z,101235.38
2023-04-16T06:37:20.523Z,101227.38
2023-04-16T06:39:46.914Z,101236.53
2023-04-16T06:42:13.394Z,101238.19
2023-04-16T06:44:39.824Z,101238.94
2023-04-16T06:47:08.041Z,101240.25
2023-04-16T06:49:34.919Z,101239.47
2023-04-16T06:52:02.435Z,101242.25
2023-04-16T06:54:30.418Z,101244.25
2023-04-16T06:56:56.823Z,101237.16
2023-04-16T06:59:23.301Z,101239.88
2023-04-16T07:01:49.731Z,101244.19
2023-04-16T07:04:17.513Z,101240.31
2023-04-16T07:06:44.245Z,101246.75
2023-04-16T07:09:10.793Z,101247.75
2023-04-16T07:11:37.832Z,101253.00
2023-04-16T07:14:04.813Z,101251.63
2023-04-16T07:16:31.282Z,101253.56
2023-04-16T07:18:57.697Z,101262.13
2023-04-16T07:21:25.578Z,101263.03
2023-04-16T07:23:51.968Z,101257.63
2023-04-16T07:26:18.342Z,101259.72
2023-04-16T07:28:45.245Z,101264.47
2023-04-16T07:31:11.826Z,101262.19
2023-04-16T07:33:40.043Z,101271.16
2023-04-16T07:36:07.083Z,101272.50
2023-04-16T07:38:34.909Z,101271.19
2023-04-16T07:41:01.705Z,101280.88
2023-04-16T07:43:28.160Z,101276.19
2023-04-16T07:45:54.569Z,101272.66
2023-04-16T07:48:21.574Z,101287.34
2023-04-16T07:50:48.104Z,101282.00
2023-04-16T07:53:14.452Z,101290.91
2023-04-16T07:55:42.138Z,101281.84
2023-04-16T07:58:08.671Z,101283.63
2023-04-16T08:00:35.344Z,101295.53
2023-04-16T08:03:02.020Z,101298.19
2023-04-16T08:05:28.603Z,101293.88
2023-04-16T08:07:55.006Z,101293.81
2023-04-16T08:10:21.422Z,101310.06
2023-04-16T08:12:49.177Z,101312.00
2023-04-16T08:15:15.600Z,101308.50
2023-04-16T08:17:41.990Z,101313.69
2023-04-16T08:20:09.568Z,101311.13
2023-04-16T08:22:37.030Z,101315.13
2023-04-16T08:25:03.836Z,101315.34
2023-04-16T08:27:30.330Z,101323.75
2023-04-16T08:29:58.035Z,101321.72
2023-04-16T08:32:24.443Z,101313.00
2023-04-16T08:34:50.909Z,101325.34
2023-04-16T08:37:17.283Z,101328.16
2023-04-16T08:39:43.655Z,101327.53
2023-04-16T08:42:14.141Z,101330.84
2023-04-16T08:44:49.006Z,101329.63
2023-04-16T08:47:17.834Z,101335.28
2023-04-16T08:49:45.244Z,101337.53
2023-04-16T08:52:16.350Z,101341.84
2023-04-16T08:54:56.338Z,101343.19
2023-04-16T08:57:26.700Z,101343.72
2023-04-16T08:59:55.702Z,101343.78
2023-04-16T09:02:26.334Z,101346.94
2023-04-16T09:04:53.635Z,101349.41
2023-04-16T09:07:21.740Z,101347.59
2023-04-16T09:09:48.687Z,101345.16
2023-04-16T09:12:15.387Z,101340.81
2023-04-16T09:14:41.987Z,101351.69
2023-04-16T09:17:09.594Z,101342.38
2023-04-16T09:19:37.453Z,101349.75
2023-04-16T09:22:03.907Z,101351.84
2023-04-16T09:24:31.151Z,101355.69
2023-04-16T09:26:57.946Z,101351.00
2023-04-16T09:29:34.403Z,101364.09
2023-04-16T09:32:05.740Z,101362.81
2023-04-16T09:34:32.838Z,101363.50
2023-04-16T09:40:00.455Z,101364.63
2023-04-16T09:42:28.541Z,101361.63
2023-04-16T09:44:57.837Z,101368.19
2023-04-16T09:47:38.132Z,101366.78
2023-04-16T09:50:05.486Z,101365.63
2023-04-16T09:52:31.843Z,101377.34
2023-04-16T09:54:59.942Z,101369.63
2023-04-16T09:57:26.346Z,101373.00
2023-04-16T09:59:53.811Z,101375.09
2023-04-16T10:02:20.396Z,101383.25
2023-04-16T10:04:48.356Z,101382.31
2023-04-16T10:07:14.964Z,101384.25
2023-04-16T10:09:41.351Z,101391.03
2023-04-16T10:12:09.772Z,101394.06
2023-04-16T10:14:36.443Z,101394.97
2023-04-16T10:17:04.351Z,101385.25
2023-04-16T10:19:32.122Z,101402.47
2023-04-16T10:21:58.798Z,101403.38
2023-04-16T10:24:25.926Z,101404.00
2023-04-16T10:26:52.874Z,101406.97
2023-04-16T10:29:21.844Z,101411.38
2023-04-16T10:31:49.414Z,101413.31
2023-04-16T10:34:16.793Z,101409.09
2023-04-16T10:36:43.348Z,101416.72
2023-04-16T10:39:11.424Z,101413.72
2023-04-16T10:41:38.934Z,101416.69
2023-04-16T10:44:06.804Z,101414.84
2023-04-16T10:46:37.541Z,101414.94
2023-04-16T10:49:16.664Z,101413.00
2023-04-16T10:51:52.894Z,101421.16
2023-04-16T10:54:23.234Z,101415.47
2023-04-16T10:56:50.298Z,101404.44
2023-04-16T10:59:19.112Z,101418.41
2023-04-16T11:01:48.405Z,101418.59
2023-04-16T11:04:29.737Z,101423.31
2023-04-16T11:07:04.185Z,101412.59
2023-04-16T11:09:45.315Z,101419.81
2023-04-16T11:12:13.205Z,101420.13
2023-04-16T11:14:40.482Z,101420.94
2023-04-16T11:17:08.807Z,101417.66
2023-04-16T11:19:35.887Z,101415.75
2023-04-16T11:22:02.487Z,101426.50
2023-04-16T11:24:29.657Z,101428.38
2023-04-16T11:26:56.466Z,101425.91
2023-04-16T11:29:22.903Z,101422.38
2023-04-16T11:31:50.720Z,101423.31
2023-04-16T11:34:19.053Z,101422.22
2023-04-16T11:36:45.775Z,101430.59
2023-04-16T11:39:12.721Z,101427.69
2023-04-16T11:41:42.747Z,101441.81
2023-04-16T11:44:17.623Z,101440.59
2023-04-16T11:46:44.338Z,101438.25
2023-04-16T11:49:10.931Z,101428.75
2023-04-16T11:51:42.239Z,101434.16
2023-04-16T11:54:11.661Z,101436.91
2023-04-16T11:56:38.625Z,101436.88
2023-04-16T11:59:10.343Z,101432.63
2023-04-16T12:01:38.022Z,101431.78
2023-04-16T12:04:04.708Z,101439.78
2023-04-16T12:06:31.727Z,101431.88
2023-04-16T12:08:59.713Z,101437.59
2023-04-16T12:11:39.370Z,101441.59
2023-04-16T12:14:09.959Z,101432.81
2023-04-16T12:16:36.461Z,101437.38
2023-04-16T12:19:03.852Z,101439.63
2023-04-16T12:21:38.085Z,101438.75
2023-04-16T12:24:08.081Z,101439.44
2023-04-16T12:26:39.682Z,101441.13
2023-04-16T12:29:20.141Z,101447.78
2023-04-16T12:31:46.945Z,101446.53
2023-04-16T12:34:22.119Z,101437.00
2023-04-16T12:37:06.840Z,101445.75
2023-04-16T12:39:34.585Z,101438.97
2023-04-16T12:42:01.054Z,101445.69
2023-04-16T12:44:27.555Z,101444.16
2023-04-16T12:46:53.922Z,101437.19
2023-04-16T12:49:20.318Z,101437.31
2023-04-16T12:51:46.802Z,101440.25
2023-04-16T12:54:13.248Z,101439.06
2023-04-16T12:56:40.922Z,101430.53
2023-04-16T12:59:10.640Z,101439.75
2023-04-16T13:01:37.380Z,101431.31
2023-04-16T13:04:03.984Z,101435.19
2023-04-16T13:06:30.855Z,101432.00
2023-04-16T13:08:57.368Z,101431.38
2023-04-16T13:11:23.772Z,101426.72
2023-04-16T13:13:51.542Z,101425.25
2023-04-16T13:16:17.965Z,101432.25
2023-04-16T13:18:44.345Z,101440.09
2023-04-16T13:21:10.888Z,101447.25
2023-04-16T13:23:37.377Z,101433.56
2023-04-16T13:26:03.754Z,101445.69
2023-04-16T13:28:30.207Z,101423.44
2023-04-16T13:30:58.097Z,101441.63
2023-04-16T13:33:24.480Z,101434.94
2023-04-16T13:35:50.829Z,101435.09
2023-04-16T13:38:17.555Z,101420.34
2023-04-16T13:40:43.976Z,101433.56
2023-04-16T13:43:10.349Z,101438.09
2023-04-16T13:45:37.460Z,101424.09
2023-04-16T13:48:05.570Z,101429.63
2023-04-16T13:50:31.958Z,101418.03
2023-04-16T13:52:58.330Z,101426.00
2023-04-16T13:55:24.852Z,101415.75
2023-04-16T13:57:51.266Z,101414.78
2023-04-16T14:00:18.150Z,101409.22
2023-04-16T14:02:44.666Z,101421.22
2023-04-16T14:05:12.444Z,101418.25
2023-04-16T14:07:38.835Z,101414.81
2023-04-16T14:10:06.074Z,101405.00
2023-04-16T14:12:32.554Z,101420.09
2023-04-16T14:14:58.982Z,101418.13
2023-04-16T14:17:25.414Z,101414.47
2023-04-16T14:19:51.842Z,101416.63
2023-04-16T14:22:19.748Z,101422.06
2023-04-16T14:24:46.320Z,101420.72
2023-04-16T14:27:12.664Z,101426.03
2023-04-16T14:29:39.139Z,101419.38
2023-04-16T14:32:06.054Z,101422.13
2023-04-16T14:34:32.579Z,101428.13
2023-04-16T14:36:59.042Z,101423.53
2023-04-16T14:39:26.766Z,101427.09
2023-04-16T14:41:53.209Z,101425.88
2023-04-16T14:44:19.599Z,101423.84
2023-04-16T14:46:45.960Z,101430.56
2023-04-16T14:49:12.605Z,101430.22
2023-04-16T14:51:39.135Z,101423.50
2023-04-16T14:54:05.645Z,101423.34
2023-04-16T14:56:33.438Z,101428.88
2023-04-16T14:58:59.904Z,101432.97
2023-04-16T15:01:26.341Z,101431.97
2023-04-16T15:03:52.932Z,101430.31
2023-04-16T15:06:19.508Z,101424.13
2023-04-16T15:08:45.885Z,101432.41
2023-04-16T15:11:12.361Z,101440.41
2023-04-16T15:13:40.178Z,101428.06
2023-04-16T15:16:06.555Z,101434.41
2023-04-16T15:18:33.315Z,101433.69
2023-04-16T15:20:59.760Z,101424.22
2023-04-16T15:23:26.313Z,101429.25
2023-04-16T15:25:52.673Z,101441.50
2023-04-16T15:28:19.155Z,101439.88
2023-04-16T15:30:46.952Z,101439.50
2023-04-16T15:33:13.350Z,101448.75
2023-04-16T15:35:39.791Z,101444.75
2023-04-16T15:38:06.201Z,101447.88
2023-04-16T15:40:32.561Z,101447.38
2023-04-16T15:42:59.117Z,101440.59
2023-04-16T15:45:25.616Z,101443.97
2023-04-16T15:47:53.857Z,101444.22
2023-04-16T15:50:20.494Z,101456.84
2023-04-16T15:52:47.375Z,101450.63
2023-04-16T15:55:14.521Z,101451.75
2023-04-16T15:57:40.958Z,101454.25
2023-04-16T16:00:09.482Z,101452.34
2023-04-16T16:02:37.196Z,101456.81
2023-04-16T16:05:05.866Z,101464.59
2023-04-16T16:07:32.245Z,101453.69
2023-04-16T16:09:58.715Z,101457.34
2023-04-16T16:12:25.246Z,101461.81
2023-04-16T16:14:51.602Z,101460.25
2023-04-16T16:17:17.970Z,101460.34
2023-04-16T16:19:46.310Z,101461.38
2023-04-16T16:22:14.290Z,101457.22
2023-04-16T16:24:40.652Z,101462.75
2023-04-16T16:27:07.057Z,101464.44
2023-04-16T16:29:33.445Z,101466.03
2023-04-16T16:31:59.974Z,101461.03
2023-04-16T16:34:26.685Z,101471.84
2023-04-16T16:36:53.058Z,101473.44
2023-04-16T16:39:20.772Z,101472.47
2023-04-16T16:41:47.125Z,101473.25
2023-04-16T16:44:13.475Z,101479.88
2023-04-16T16:46:39.879Z,101479.69
2023-04-16T16:49:06.283Z,101486.34
2023-04-16T16:51:33.190Z,101483.16
2023-04-16T16:53:59.578Z,101478.97
2023-04-16T16:56:27.294Z,101479.91
2023-04-16T16:58:53.658Z,101479.63
2023-04-16T17:01:20.079Z,101489.78
2023-04-16T17:03:46.565Z,101491.78
2023-04-16T17:06:13.061Z,101493.44
2023-04-16T17:08:39.438Z,101496.56
2023-04-16T17:11:05.811Z,101488.16
2023-04-16T17:13:33.541Z,101490.53
2023-04-16T17:15:59.928Z,101502.50
2023-04-16T17:18:26.363Z,101494.94
2023-04-16T17:20:52.758Z,101498.25
2023-04-16T17:23:19.212Z,101503.97
2023-04-16T17:25:45.824Z,101512.09
2023-04-16T17:28:12.182Z,101518.66
2023-04-16T17:30:39.883Z,101506.13
2023-04-16T17:33:06.390Z,101506.53
2023-04-16T17:35:33.010Z,101517.91
2023-04-16T17:37:59.413Z,101517.91
2023-04-16T17:40:25.827Z,101519.91
2023-04-16T17:42:52.230Z,101525.25
2023-04-16T17:45:19.003Z,101519.53
2023-04-16T17:47:46.744Z,101536.91
2023-04-16T17:50:13.252Z,101528.78
2023-04-16T17:52:39.617Z,101540.09
2023-04-16T17:55:06.899Z,101538.50
2023-04-16T17:57:33.286Z,101545.38
2023-04-16T17:59:59.668Z,101543.16
2023-04-16T18:02:26.228Z,101548.28
2023-04-16T18:04:54.142Z,101553.84
2023-04-16T18:07:20.662Z,101554.09
2023-04-16T18:09:47.013Z,101550.88
2023-04-16T18:12:13.521Z,101549.78
2023-04-16T18:14:39.888Z,101561.91
2023-04-16T18:17:06.791Z,101557.72
2023-04-16T18:19:33.230Z,101558.16
2023-04-16T18:22:00.924Z,101566.78
2023-04-16T18:24:27.295Z,101576.63
2023-04-16T18:26:55.346Z,101570.72
2023-04-16T18:29:24.812Z,101574.31
2023-04-16T18:31:52.793Z,101577.50
2023-04-16T18:34:19.394Z,101584.78
2023-04-16T18:36:45.931Z,101579.66
2023-04-16T18:39:13.696Z,101583.34
2023-04-16T18:41:40.177Z,101591.34
2023-04-16T18:44:06.543Z,101591.75
2023-04-16T18:46:33.007Z,101587.78
2023-04-16T18:48:59.453Z,101594.69
2023-04-16T18:51:25.809Z,101598.88
2023-04-16T18:53:52.173Z,101598.44
2023-04-16T18:56:19.946Z,101601.75
2023-04-16T18:58:46.354Z,101607.00
2023-04-16T19:01:12.844Z,101604.22
2023-04-16T19:03:39.646Z,101608.13
2023-04-16T19:06:06.300Z,101611.56
2023-04-16T19:08:32.775Z,101612.34
2023-04-16T19:10:59.290Z,101621.78
2023-04-16T19:13:27.114Z,101619.44
2023-04-16T19:15:57.592Z,101622.94
2023-04-16T19:18:24.064Z,101630.31
2023-04-16T19:20:50.439Z,101625.31
2023-04-16T19:23:16.817Z,101622.53
2023-04-16T19:25:43.303Z,101625.25
2023-04-16T19:28:09.665Z,101623.16
2023-04-16T19:30:37.437Z,101630.81
2023-04-16T19:33:04.127Z,101634.06
2023-04-16T19:35:30.525Z,101636.56
2023-04-16T19:37:56.943Z,101629.50
2023-04-16T19:40:23.318Z,101637.06
2023-04-16T19:42:49.699Z,101634.50
2023-04-16T19:45:16.291Z,101633.63
2023-04-16T19:47:44.225Z,101634.31
2023-04-16T19:50:11.103Z,101634.56
2023-04-16T19:52:37.580Z,101636.88
2023-04-16T19:55:04.943Z,101642.19
2023-04-16T19:57:31.325Z,101642.44
2023-04-16T19:59:57.702Z,101643.03
2023-04-16T20:02:24.294Z,101644.06
2023-04-16T20:04:52.176Z,101645.25
2023-04-16T20:07:18.569Z,101645.38
2023-04-16T20:09:44.956Z,101646.13
2023-04-16T20:12:11.375Z,101651.50
2023-04-16T20:14:37.812Z,101650.94
2023-04-16T20:17:04.253Z,101649.53
2023-04-16T20:19:30.619Z,101651.75
2023-04-16T20:21:58.314Z,101646.56
2023-04-16T20:24:24.701Z,101654.97
2023-04-16T20:26:51.074Z,101647.94
2023-04-16T20:29:17.467Z,101644.59
2023-04-16T20:31:43.848Z,101650.31
2023-04-16T20:34:10.193Z,101653.31
2023-04-16T20:36:36.590Z,101647.78
2023-04-16T20:39:04.285Z,101643.53
2023-04-16T20:41:30.623Z,101642.56
2023-04-16T20:43:57.139Z,101648.91
2023-04-16T20:46:23.867Z,101655.41
2023-04-16T20:48:50.413Z,101645.03
2023-04-16T20:51:16.883Z,101649.44
2023-04-16T20:53:43.237Z,101658.38
2023-04-16T20:56:10.949Z,101649.84
2023-04-16T20:58:37.462Z,101649.78
2023-04-16T21:01:03.813Z,101645.34
2023-04-16T21:03:30.354Z,101648.03
2023-04-16T21:05:56.911Z,101650.59
2023-04-16T21:08:23.952Z,101651.50
2023-04-16T21:10:50.485Z,101646.81
2023-04-16T21:13:18.629Z,101652.06
2023-04-16T21:15:45.126Z,101658.38
2023-04-16T21:18:11.978Z,101658.94
2023-04-16T21:20:39.106Z,101656.97
2023-04-16T21:23:06.903Z,101661.28
2023-04-16T21:25:33.293Z,101666.91
2023-04-16T21:27:59.752Z,101659.53
2023-04-16T21:30:27.432Z,101661.34
2023-04-16T21:32:53.850Z,101663.16
2023-04-16T21:35:20.304Z,101664.94
2023-04-16T21:37:46.740Z,101664.00
2023-04-16T21:40:13.464Z,101667.59
2023-04-16T21:42:39.882Z,101665.56
2023-04-16T21:45:08.223Z,101665.31
2023-04-16T21:47:36.035Z,101667.25
2023-04-16T21:50:02.620Z,101670.28
2023-04-16T21:52:28.985Z,101670.00
2023-04-16T21:54:55.377Z,101671.44
2023-04-16T21:57:21.722Z,101675.38
2023-04-16T21:59:48.064Z,101672.81
2023-04-16T22:02:14.603Z,101670.97
2023-04-16T22:04:42.398Z,101676.41
2023-04-16T22:07:09.248Z,101673.19
2023-04-16T22:09:35.820Z,101669.53
2023-04-16T22:12:02.238Z,101669.97
2023-04-16T22:14:28.730Z,101672.06
2023-04-16T22:16:55.334Z,101675.81
2023-04-16T22:19:21.889Z,101676.25
2023-04-16T22:21:49.673Z,101682.66
2023-04-16T22:24:16.103Z,101677.13
2023-04-16T22:26:42.519Z,101672.69
2023-04-16T22:29:09.011Z,101683.66
2023-04-16T22:31:35.538Z,101677.41
2023-04-16T22:34:03.503Z,101677.59
2023-04-16T22:36:30.115Z,101683.63
2023-04-16T22:38:57.945Z,101680.34
2023-04-16T22:41:24.392Z,101680.09
2023-04-16T22:43:52.467Z,101679.69
2023-04-16T22:46:19.111Z,101682.38
2023-04-16T22:48:45.617Z,101683.47
2023-04-16T22:51:12.010Z,101681.91
2023-04-16T22:53:38.433Z,101680.31
2023-04-16T22:56:07.172Z,101681.09
2023-04-16T22:58:33.638Z,101677.06
2023-04-16T23:01:00.209Z,101679.56
2023-04-16T23:03:26.856Z,101675.28
2023-04-16T23:05:53.432Z,101674.31
2023-04-16T23:08:19.879Z,101676.47
2023-04-16T23:10:46.336Z,101673.75
2023-04-16T23:13:14.392Z,101674.00
2023-04-16T23:15:40.842Z,101674.31
2023-04-16T23:18:07.507Z,101678.59
2023-04-16T23:20:34.104Z,101680.56
2023-04-16T23:23:00.467Z,101679.38
2023-04-16T23:25:26.993Z,101687.38
2023-04-16T23:27:53.372Z,101686.72
2023-04-16T23:30:21.768Z,101686.59
2023-04-16T23:32:48.227Z,101686.94
2023-04-16T23:35:14.702Z,101679.41
2023-04-16T23:37:41.075Z,101681.34
2023-04-16T23:40:08.720Z,101684.41
2023-04-16T23:42:35.112Z,101687.81
2023-04-16T23:45:01.458Z,101685.81
2023-04-16T23:47:29.166Z,101683.94
2023-04-16T23:49:55.552Z,101680.84
2023-04-16T23:52:21.938Z,101673.06
2023-04-16T23:54:48.319Z,101681.84
2023-04-16T23:57:14.728Z,101684.13
2023-04-16T23:59:41.094Z,101681.31
